sensor_id;sensor_type;location;lat;lon;timestamp;temperature;humidity
2022;DHT22;1015;49.756;6.994;2022-09-09T00:02:18;13.60;99.90
2022;DHT22;1015;49.756;6.994;2022-09-09T00:04:54;13.70;99.90
2022;DHT22;1015;49.756;6.994;2022-09-09T00:07:34;13.70;99.90
2022;DHT22;1015;49.756;6.994;2022-09-09T00:10:16;13.70;99.90
2022;DHT22;1015;49.756;6.994;2022-09-09T00:12:51;13.70;99.90
2022;DHT22;1015;49.756;6.994;2022-09-09T00:15:23;13.70;99.90
2022;DHT22;1015;49.756;6.994;2022-09-09T00:17:57;13.70;99.90
2022;DHT22;1015;49.756;6.994;2022-09-09T00:20:31;13.70;99.90
2022;DHT22;1015;49.756;6.994;2022-09-09T00:23:04;13.60;99.90
2022;DHT22;1015;49.756;6.994;2022-09-09T00:25:37;13.60;99.90
2022;DHT22;1015;49.756;6.994;2022-09-09T00:28:15;13.60;99.90
2022;DHT22;1015;49.756;6.994;2022-09-09T00:30:44;13.60;99.90
2022;DHT22;1015;49.756;6.994;2022-09-09T00:33:17;13.50;99.90
2022;DHT22;1015;49.756;6.994;2022-09-09T00:35:48;13.50;99.90
2022;DHT22;1015;49.756;6.994;2022-09-09T00:38:18;13.30;99.90
2022;DHT22;1015;49.756;6.994;2022-09-09T00:40:49;13.30;99.90
2022;DHT22;1015;49.756;6.994;2022-09-09T00:43:26;13.30;99.90
2022;DHT22;1015;49.756;6.994;2022-09-09T00:46:41;13.20;99.90
2022;DHT22;1015;49.756;6.994;2022-09-09T00:49:24;13.20;99.90
2022;DHT22;1015;49.756;6.994;2022-09-09T00:52:00;13.20;99.90
2022;DHT22;1015;49.756;6.994;2022-09-09T00:54:40;13.00;99.90
2022;DHT22;1015;49.756;6.994;2022-09-09T00:57:23;13.00;99.90
2022;DHT22;1015;49.756;6.994;2022-09-09T00:59:58;13.00;99.90
2022;DHT22;1015;49.756;6.994;2022-09-09T01:02:32;13.10;99.90
2022;DHT22;1015;49.756;6.994;2022-09-09T01:05:06;13.20;99.90
2022;DHT22;1015;49.756;6.994;2022-09-09T01:07:37;13.20;99.90
2022;DHT22;1015;49.756;6.994;2022-09-09T01:10:09;13.30;99.90
2022;DHT22;1015;49.756;6.994;2022-09-09T01:12:42;13.30;99.90
2022;DHT22;1015;49.756;6.994;2022-09-09T01:15:12;13.40;99.90
2022;DHT22;1015;49.756;6.994;2022-09-09T01:17:50;13.40;99.90
2022;DHT22;1015;49.756;6.994;2022-09-09T01:20:23;13.50;99.90
2022;DHT22;1015;49.756;6.994;2022-09-09T01:23:04;13.50;99.90
2022;DHT22;1015;49.756;6.994;2022-09-09T01:28:47;13.50;99.90
2022;DHT22;1015;49.756;6.994;2022-09-09T01:31:18;13.50;99.90
2022;DHT22;1015;49.756;6.994;2022-09-09T01:33:45;13.50;99.90
2022;DHT22;1015;49.756;6.994;2022-09-09T01:36:17;13.50;99.90
2022;DHT22;1015;49.756;6.994;2022-09-09T01:38:46;13.50;99.90
2022;DHT22;1015;49.756;6.994;2022-09-09T01:41:15;13.50;99.90
2022;DHT22;1015;49.756;6.994;2022-09-09T01:43:42;13.50;99.90
2022;DHT22;1015;49.756;6.994;2022-09-09T01:46:09;13.50;99.90
2022;DHT22;1015;49.756;6.994;2022-09-09T01:48:37;13.50;99.90
2022;DHT22;1015;49.756;6.994;2022-09-09T01:51:04;13.50;99.90
2022;DHT22;1015;49.756;6.994;2022-09-09T01:53:31;13.50;99.90
2022;DHT22;1015;49.756;6.994;2022-09-09T01:56:10;13.50;99.90
2022;DHT22;1015;49.756;6.994;2022-09-09T01:58:49;13.50;99.90
2022;DHT22;1015;49.756;6.994;2022-09-09T02:01:27;13.50;99.90
2022;DHT22;1015;49.756;6.994;2022-09-09T02:03:59;13.50;99.90
2022;DHT22;1015;49.756;6.994;2022-09-09T02:06:34;13.50;99.90
2022;DHT22;1015;49.756;6.994;2022-09-09T02:09:05;13.50;99.90
2022;DHT22;1015;49.756;6.994;2022-09-09T02:11:33;13.50;99.90
2022;DHT22;1015;49.756;6.994;2022-09-09T02:14:05;13.50;99.90
2022;DHT22;1015;49.756;6.994;2022-09-09T02:16:38;13.50;99.90
2022;DHT22;1015;49.756;6.994;2022-09-09T02:19:09;13.50;99.90
2022;DHT22;1015;49.756;6.994;2022-09-09T02:21:40;13.50;99.90
2022;DHT22;1015;49.756;6.994;2022-09-09T02:24:08;13.60;99.90
2022;DHT22;1015;49.756;6.994;2022-09-09T02:26:39;13.60;99.90
2022;DHT22;1015;49.756;6.994;2022-09-09T02:29:12;13.60;99.90
2022;DHT22;1015;49.756;6.994;2022-09-09T02:31:41;13.70;99.90
2022;DHT22;1015;49.756;6.994;2022-09-09T02:34:10;13.60;99.90
2022;DHT22;1015;49.756;6.994;2022-09-09T02:36:41;13.60;99.90
2022;DHT22;1015;49.756;6.994;2022-09-09T02:39:10;13.60;99.90
2022;DHT22;1015;49.756;6.994;2022-09-09T02:41:40;13.60;99.90
2022;DHT22;1015;49.756;6.994;2022-09-09T02:44:11;13.60;99.90
2022;DHT22;1015;49.756;6.994;2022-09-09T02:47:00;13.60;99.90
2022;DHT22;1015;49.756;6.994;2022-09-09T02:49:38;13.60;99.90
2022;DHT22;1015;49.756;6.994;2022-09-09T02:52:08;13.60;99.90
2022;DHT22;1015;49.756;6.994;2022-09-09T02:54:39;13.70;99.90
2022;DHT22;1015;49.756;6.994;2022-09-09T02:57:09;13.70;99.90
2022;DHT22;1015;49.756;6.994;2022-09-09T02:59:38;13.70;99.90
2022;DHT22;1015;49.756;6.994;2022-09-09T03:02:06;13.70;99.90
2022;DHT22;1015;49.756;6.994;2022-09-09T03:04:33;13.70;99.90
2022;DHT22;1015;49.756;6.994;2022-09-09T03:07:00;13.70;99.90
2022;DHT22;1015;49.756;6.994;2022-09-09T03:09:29;13.70;99.90
2022;DHT22;1015;49.756;6.994;2022-09-09T03:11:56;13.70;99.90
2022;DHT22;1015;49.756;6.994;2022-09-09T03:14:23;13.70;99.90
2022;DHT22;1015;49.756;6.994;2022-09-09T03:16:52;13.70;99.90
2022;DHT22;1015;49.756;6.994;2022-09-09T03:19:20;13.70;99.90
2022;DHT22;1015;49.756;6.994;2022-09-09T03:21:47;13.70;99.90
2022;DHT22;1015;49.756;6.994;2022-09-09T03:24:15;13.70;99.90
2022;DHT22;1015;49.756;6.994;2022-09-09T03:26:42;13.70;99.90
2022;DHT22;1015;49.756;6.994;2022-09-09T03:29:10;13.70;99.90
2022;DHT22;1015;49.756;6.994;2022-09-09T03:31:38;13.70;99.90
2022;DHT22;1015;49.756;6.994;2022-09-09T03:34:06;13.70;99.90
2022;DHT22;1015;49.756;6.994;2022-09-09T03:36:34;13.70;99.90
2022;DHT22;1015;49.756;6.994;2022-09-09T03:39:01;13.70;99.90
2022;DHT22;1015;49.756;6.994;2022-09-09T03:41:29;13.70;99.90
2022;DHT22;1015;49.756;6.994;2022-09-09T03:43:56;13.70;99.90
2022;DHT22;1015;49.756;6.994;2022-09-09T03:46:24;13.80;99.90
2022;DHT22;1015;49.756;6.994;2022-09-09T03:48:51;13.70;99.90
2022;DHT22;1015;49.756;6.994;2022-09-09T03:51:20;13.70;99.90
2022;DHT22;1015;49.756;6.994;2022-09-09T03:53:47;13.70;99.90
2022;DHT22;1015;49.756;6.994;2022-09-09T03:56:14;13.70;99.90
2022;DHT22;1015;49.756;6.994;2022-09-09T03:58:41;13.70;99.90
2022;DHT22;1015;49.756;6.994;2022-09-09T04:01:10;13.70;99.90
2022;DHT22;1015;49.756;6.994;2022-09-09T04:03:38;13.70;99.90
2022;DHT22;1015;49.756;6.994;2022-09-09T04:06:07;13.70;99.90
2022;DHT22;1015;49.756;6.994;2022-09-09T04:08:36;13.70;99.90
2022;DHT22;1015;49.756;6.994;2022-09-09T04:11:04;13.70;99.90
2022;DHT22;1015;49.756;6.994;2022-09-09T04:13:32;13.70;99.90
2022;DHT22;1015;49.756;6.994;2022-09-09T04:16:01;13.70;99.90
2022;DHT22;1015;49.756;6.994;2022-09-09T04:18:29;13.70;99.90
2022;DHT22;1015;49.756;6.994;2022-09-09T04:20:56;13.60;99.90
2022;DHT22;1015;49.756;6.994;2022-09-09T04:23:26;13.60;99.90
2022;DHT22;1015;49.756;6.994;2022-09-09T04:25:57;13.50;99.90
2022;DHT22;1015;49.756;6.994;2022-09-09T04:28:25;13.50;99.90
2022;DHT22;1015;49.756;6.994;2022-09-09T04:30:53;13.50;99.90
2022;DHT22;1015;49.756;6.994;2022-09-09T04:33:20;13.50;99.90
2022;DHT22;1015;49.756;6.994;2022-09-09T04:35:48;13.60;99.90
2022;DHT22;1015;49.756;6.994;2022-09-09T04:38:16;13.60;99.90
2022;DHT22;1015;49.756;6.994;2022-09-09T04:40:43;13.60;99.90
2022;DHT22;1015;49.756;6.994;2022-09-09T04:43:12;13.60;99.90
2022;DHT22;1015;49.756;6.994;2022-09-09T04:45:40;13.60;99.90
2022;DHT22;1015;49.756;6.994;2022-09-09T04:48:07;13.60;99.90
2022;DHT22;1015;49.756;6.994;2022-09-09T04:50:35;13.60;99.90
2022;DHT22;1015;49.756;6.994;2022-09-09T04:53:02;13.60;99.90
2022;DHT22;1015;49.756;6.994;2022-09-09T04:55:30;13.60;99.90
2022;DHT22;1015;49.756;6.994;2022-09-09T04:57:57;13.60;99.90
2022;DHT22;1015;49.756;6.994;2022-09-09T05:00:25;13.60;99.90
2022;DHT22;1015;49.756;6.994;2022-09-09T05:02:52;13.60;99.90
2022;DHT22;1015;49.756;6.994;2022-09-09T05:05:19;13.60;99.90
2022;DHT22;1015;49.756;6.994;2022-09-09T05:07:46;13.70;99.90
2022;DHT22;1015;49.756;6.994;2022-09-09T05:10:13;13.70;99.90
2022;DHT22;1015;49.756;6.994;2022-09-09T05:12:43;13.70;99.90
2022;DHT22;1015;49.756;6.994;2022-09-09T05:15:09;13.70;99.90
2022;DHT22;1015;49.756;6.994;2022-09-09T05:17:38;13.70;99.90
2022;DHT22;1015;49.756;6.994;2022-09-09T05:20:06;13.70;99.90
2022;DHT22;1015;49.756;6.994;2022-09-09T05:22:33;13.70;99.90
2022;DHT22;1015;49.756;6.994;2022-09-09T05:25:00;13.70;99.90
2022;DHT22;1015;49.756;6.994;2022-09-09T05:27:27;13.70;99.90
2022;DHT22;1015;49.756;6.994;2022-09-09T05:29:54;13.70;99.90
2022;DHT22;1015;49.756;6.994;2022-09-09T05:32:22;13.70;99.90
2022;DHT22;1015;49.756;6.994;2022-09-09T05:34:51;13.70;99.90
2022;DHT22;1015;49.756;6.994;2022-09-09T05:37:18;13.70;99.90
2022;DHT22;1015;49.756;6.994;2022-09-09T05:39:45;13.80;99.90
2022;DHT22;1015;49.756;6.994;2022-09-09T05:42:12;13.80;99.90
2022;DHT22;1015;49.756;6.994;2022-09-09T05:44:38;13.80;99.90
2022;DHT22;1015;49.756;6.994;2022-09-09T05:47:07;13.80;99.90
2022;DHT22;1015;49.756;6.994;2022-09-09T05:49:35;13.90;99.90
2022;DHT22;1015;49.756;6.994;2022-09-09T05:52:03;13.90;99.90
2022;DHT22;1015;49.756;6.994;2022-09-09T05:54:30;13.90;99.90
2022;DHT22;1015;49.756;6.994;2022-09-09T05:56:58;14.00;99.90
2022;DHT22;1015;49.756;6.994;2022-09-09T05:59:25;14.00;99.90
2022;DHT22;1015;49.756;6.994;2022-09-09T06:01:51;14.10;99.90
2022;DHT22;1015;49.756;6.994;2022-09-09T06:04:19;14.20;99.90
2022;DHT22;1015;49.756;6.994;2022-09-09T06:06:47;14.20;99.90
2022;DHT22;1015;49.756;6.994;2022-09-09T06:09:15;14.20;99.90
2022;DHT22;1015;49.756;6.994;2022-09-09T06:11:42;14.30;99.90
2022;DHT22;1015;49.756;6.994;2022-09-09T06:14:09;14.30;99.90
2022;DHT22;1015;49.756;6.994;2022-09-09T06:16:36;14.40;99.90
2022;DHT22;1015;49.756;6.994;2022-09-09T06:19:04;14.20;99.90
2022;DHT22;1015;49.756;6.994;2022-09-09T06:21:33;14.40;99.90
2022;DHT22;1015;49.756;6.994;2022-09-09T06:24:02;14.30;99.90
2022;DHT22;1015;49.756;6.994;2022-09-09T06:26:32;14.30;99.90
2022;DHT22;1015;49.756;6.994;2022-09-09T06:29:00;14.40;99.90
2022;DHT22;1015;49.756;6.994;2022-09-09T06:31:30;14.40;99.90
2022;DHT22;1015;49.756;6.994;2022-09-09T06:34:00;14.40;99.90
2022;DHT22;1015;49.756;6.994;2022-09-09T06:36:28;14.40;99.90
2022;DHT22;1015;49.756;6.994;2022-09-09T06:38:56;14.30;99.90
2022;DHT22;1015;49.756;6.994;2022-09-09T06:41:26;14.30;99.90
2022;DHT22;1015;49.756;6.994;2022-09-09T06:43:55;14.30;99.90
2022;DHT22;1015;49.756;6.994;2022-09-09T06:46:24;14.20;99.90
2022;DHT22;1015;49.756;6.994;2022-09-09T06:48:53;14.20;99.90
2022;DHT22;1015;49.756;6.994;2022-09-09T06:51:23;14.10;99.90
2022;DHT22;1015;49.756;6.994;2022-09-09T06:53:52;13.90;99.90
2022;DHT22;1015;49.756;6.994;2022-09-09T06:56:22;13.80;99.90
2022;DHT22;1015;49.756;6.994;2022-09-09T06:58:50;13.80;99.90
2022;DHT22;1015;49.756;6.994;2022-09-09T07:01:20;13.90;99.90
2022;DHT22;1015;49.756;6.994;2022-09-09T07:03:48;14.00;99.90
2022;DHT22;1015;49.756;6.994;2022-09-09T07:06:18;14.10;99.90
2022;DHT22;1015;49.756;6.994;2022-09-09T07:08:49;14.00;99.90
2022;DHT22;1015;49.756;6.994;2022-09-09T07:11:17;14.20;99.90
2022;DHT22;1015;49.756;6.994;2022-09-09T07:13:44;14.10;99.90
2022;DHT22;1015;49.756;6.994;2022-09-09T07:16:14;14.10;99.90
2022;DHT22;1015;49.756;6.994;2022-09-09T07:18:43;14.30;99.90
2022;DHT22;1015;49.756;6.994;2022-09-09T07:21:11;14.80;99.90
2022;DHT22;1015;49.756;6.994;2022-09-09T07:23:39;14.80;99.90
2022;DHT22;1015;49.756;6.994;2022-09-09T07:26:09;14.70;99.90
2022;DHT22;1015;49.756;6.994;2022-09-09T07:28:37;14.90;99.90
2022;DHT22;1015;49.756;6.994;2022-09-09T07:31:05;14.50;99.90
2022;DHT22;1015;49.756;6.994;2022-09-09T07:33:34;14.70;99.90
2022;DHT22;1015;49.756;6.994;2022-09-09T07:36:07;14.90;99.90
2022;DHT22;1015;49.756;6.994;2022-09-09T07:38:38;15.30;99.90
2022;DHT22;1015;49.756;6.994;2022-09-09T07:41:06;15.70;99.90
2022;DHT22;1015;49.756;6.994;2022-09-09T07:43:37;15.50;99.90
2022;DHT22;1015;49.756;6.994;2022-09-09T07:46:05;15.40;99.90
2022;DHT22;1015;49.756;6.994;2022-09-09T07:48:32;15.70;99.90
2022;DHT22;1015;49.756;6.994;2022-09-09T07:51:09;15.60;99.90
2022;DHT22;1015;49.756;6.994;2022-09-09T07:53:37;15.60;99.90
2022;DHT22;1015;49.756;6.994;2022-09-09T07:56:06;15.70;99.90
2022;DHT22;1015;49.756;6.994;2022-09-09T07:58:35;16.00;99.90
2022;DHT22;1015;49.756;6.994;2022-09-09T08:01:07;15.80;99.90
2022;DHT22;1015;49.756;6.994;2022-09-09T08:03:34;16.30;99.90
2022;DHT22;1015;49.756;6.994;2022-09-09T08:06:03;16.30;99.90
2022;DHT22;1015;49.756;6.994;2022-09-09T08:08:31;15.80;99.90
2022;DHT22;1015;49.756;6.994;2022-09-09T08:11:09;15.60;99.90
2022;DHT22;1015;49.756;6.994;2022-09-09T08:13:38;15.40;99.90
2022;DHT22;1015;49.756;6.994;2022-09-09T08:16:07;15.40;99.90
2022;DHT22;1015;49.756;6.994;2022-09-09T08:18:34;15.60;99.90
2022;DHT22;1015;49.756;6.994;2022-09-09T08:21:06;15.40;99.90
2022;DHT22;1015;49.756;6.994;2022-09-09T08:23:36;15.40;99.90
2022;DHT22;1015;49.756;6.994;2022-09-09T08:26:06;15.60;99.90
2022;DHT22;1015;49.756;6.994;2022-09-09T08:28:34;16.00;99.90
2022;DHT22;1015;49.756;6.994;2022-09-09T08:31:06;16.00;99.90
2022;DHT22;1015;49.756;6.994;2022-09-09T08:33:33;16.00;99.90
2022;DHT22;1015;49.756;6.994;2022-09-09T08:36:02;16.00;99.90
2022;DHT22;1015;49.756;6.994;2022-09-09T08:38:29;15.70;99.90
2022;DHT22;1015;49.756;6.994;2022-09-09T08:41:09;15.60;99.90
2022;DHT22;1015;49.756;6.994;2022-09-09T08:43:37;15.60;99.90
2022;DHT22;1015;49.756;6.994;2022-09-09T08:46:09;15.70;99.90
2022;DHT22;1015;49.756;6.994;2022-09-09T08:48:44;15.80;99.90
2022;DHT22;1015;49.756;6.994;2022-09-09T08:51:13;16.30;99.90
2022;DHT22;1015;49.756;6.994;2022-09-09T08:53:43;17.10;99.90
2022;DHT22;1015;49.756;6.994;2022-09-09T08:56:14;18.00;99.90
2022;DHT22;1015;49.756;6.994;2022-09-09T08:58:46;17.90;99.90
2022;DHT22;1015;49.756;6.994;2022-09-09T09:01:28;17.50;99.90
2022;DHT22;1015;49.756;6.994;2022-09-09T09:04:02;17.10;99.90
2022;DHT22;1015;49.756;6.994;2022-09-09T09:06:41;16.70;99.90
2022;DHT22;1015;49.756;6.994;2022-09-09T09:09:14;16.30;99.90
2022;DHT22;1015;49.756;6.994;2022-09-09T09:11:47;16.50;99.90
2022;DHT22;1015;49.756;6.994;2022-09-09T09:14:19;16.40;99.90
2022;DHT22;1015;49.756;6.994;2022-09-09T09:16:51;16.40;99.90
2022;DHT22;1015;49.756;6.994;2022-09-09T09:19:21;16.50;99.90
2022;DHT22;1015;49.756;6.994;2022-09-09T09:21:54;16.70;99.90
2022;DHT22;1015;49.756;6.994;2022-09-09T09:24:27;16.60;99.90
2022;DHT22;1015;49.756;6.994;2022-09-09T09:27:04;16.60;99.90
2022;DHT22;1015;49.756;6.994;2022-09-09T09:29:35;16.50;99.90
2022;DHT22;1015;49.756;6.994;2022-09-09T09:32:03;16.30;99.90
2022;DHT22;1015;49.756;6.994;2022-09-09T09:34:31;16.10;99.90
2022;DHT22;1015;49.756;6.994;2022-09-09T09:36:59;15.90;99.90
2022;DHT22;1015;49.756;6.994;2022-09-09T09:39:29;15.70;99.90
2022;DHT22;1015;49.756;6.994;2022-09-09T09:41:57;15.60;99.90
2022;DHT22;1015;49.756;6.994;2022-09-09T09:44:29;15.70;99.90
2022;DHT22;1015;49.756;6.994;2022-09-09T09:47:07;15.70;99.90
2022;DHT22;1015;49.756;6.994;2022-09-09T09:49:35;15.60;99.90
2022;DHT22;1015;49.756;6.994;2022-09-09T09:52:03;15.90;99.90
2022;DHT22;1015;49.756;6.994;2022-09-09T09:54:32;16.50;99.90
2022;DHT22;1015;49.756;6.994;2022-09-09T09:57:09;16.30;99.90
2022;DHT22;1015;49.756;6.994;2022-09-09T09:59:38;16.90;99.90
2022;DHT22;1015;49.756;6.994;2022-09-09T10:02:14;17.30;99.90
2022;DHT22;1015;49.756;6.994;2022-09-09T10:04:43;17.70;99.90
2022;DHT22;1015;49.756;6.994;2022-09-09T10:07:12;17.80;99.90
2022;DHT22;1015;49.756;6.994;2022-09-09T10:09:40;17.80;99.90
2022;DHT22;1015;49.756;6.994;2022-09-09T10:12:18;17.60;99.90
2022;DHT22;1015;49.756;6.994;2022-09-09T10:14:54;17.80;99.90
2022;DHT22;1015;49.756;6.994;2022-09-09T10:17:31;17.80;99.90
2022;DHT22;1015;49.756;6.994;2022-09-09T10:20:21;18.30;99.90
2022;DHT22;1015;49.756;6.994;2022-09-09T10:22:51;18.70;99.90
2022;DHT22;1015;49.756;6.994;2022-09-09T10:25:40;19.20;99.90
2022;DHT22;1015;49.756;6.994;2022-09-09T10:28:28;19.60;99.90
2022;DHT22;1015;49.756;6.994;2022-09-09T10:31:08;19.10;99.90
2022;DHT22;1015;49.756;6.994;2022-09-09T10:33:50;18.80;99.90
2022;DHT22;1015;49.756;6.994;2022-09-09T10:36:19;19.40;99.90
2022;DHT22;1015;49.756;6.994;2022-09-09T10:38:49;19.40;99.90
2022;DHT22;1015;49.756;6.994;2022-09-09T10:41:21;18.90;99.90
2022;DHT22;1015;49.756;6.994;2022-09-09T10:47:13;18.20;99.90
2022;DHT22;1015;49.756;6.994;2022-09-09T10:52:45;17.80;99.90
2022;DHT22;1015;49.756;6.994;2022-09-09T10:55:17;17.60;99.90
2022;DHT22;1015;49.756;6.994;2022-09-09T10:57:46;17.30;99.90
2022;DHT22;1015;49.756;6.994;2022-09-09T11:00:17;17.20;99.90
2022;DHT22;1015;49.756;6.994;2022-09-09T11:02:49;17.60;99.90
2022;DHT22;1015;49.756;6.994;2022-09-09T11:05:20;18.00;99.90
2022;DHT22;1015;49.756;6.994;2022-09-09T11:07:49;18.30;99.90
2022;DHT22;1015;49.756;6.994;2022-09-09T11:10:24;18.80;99.90
2022;DHT22;1015;49.756;6.994;2022-09-09T11:12:57;19.40;99.90
2022;DHT22;1015;49.756;6.994;2022-09-09T11:15:29;19.10;99.90
2022;DHT22;1015;49.756;6.994;2022-09-09T11:18:01;19.30;99.90
2022;DHT22;1015;49.756;6.994;2022-09-09T11:20:31;19.40;99.90
2022;DHT22;1015;49.756;6.994;2022-09-09T11:23:00;19.00;99.90
2022;DHT22;1015;49.756;6.994;2022-09-09T11:25:34;18.70;99.90
2022;DHT22;1015;49.756;6.994;2022-09-09T11:28:18;18.70;99.90
2022;DHT22;1015;49.756;6.994;2022-09-09T11:30:57;18.70;99.90
2022;DHT22;1015;49.756;6.994;2022-09-09T11:39:38;19.50;99.90
2022;DHT22;1015;49.756;6.994;2022-09-09T11:42:17;19.70;99.90
2022;DHT22;1015;49.756;6.994;2022-09-09T11:44:45;19.90;99.90
2022;DHT22;1015;49.756;6.994;2022-09-09T11:47:23;20.30;99.90
2022;DHT22;1015;49.756;6.994;2022-09-09T11:50:07;20.40;99.90
2022;DHT22;1015;49.756;6.994;2022-09-09T11:52:37;20.10;99.90
2022;DHT22;1015;49.756;6.994;2022-09-09T11:55:09;19.70;99.90
2022;DHT22;1015;49.756;6.994;2022-09-09T11:57:37;19.20;99.90
2022;DHT22;1015;49.756;6.994;2022-09-09T12:00:06;19.10;99.90
2022;DHT22;1015;49.756;6.994;2022-09-09T12:02:33;18.70;99.90
2022;DHT22;1015;49.756;6.994;2022-09-09T12:05:07;18.40;99.90
2022;DHT22;1015;49.756;6.994;2022-09-09T12:07:37;18.10;99.90
2022;DHT22;1015;49.756;6.994;2022-09-09T12:10:20;17.30;99.90
2022;DHT22;1015;49.756;6.994;2022-09-09T12:12:48;16.20;99.90
2022;DHT22;1015;49.756;6.994;2022-09-09T12:15:27;16.00;99.90
2022;DHT22;1015;49.756;6.994;2022-09-09T12:17:56;15.80;99.90
2022;DHT22;1015;49.756;6.994;2022-09-09T12:20:31;15.80;99.90
2022;DHT22;1015;49.756;6.994;2022-09-09T12:23:19;15.90;99.90
2022;DHT22;1015;49.756;6.994;2022-09-09T12:25:54;16.00;99.90
2022;DHT22;1015;49.756;6.994;2022-09-09T12:28:31;16.40;99.90
2022;DHT22;1015;49.756;6.994;2022-09-09T12:31:07;16.70;99.90
2022;DHT22;1015;49.756;6.994;2022-09-09T12:33:40;17.00;99.90
2022;DHT22;1015;49.756;6.994;2022-09-09T12:36:14;17.50;99.90
2022;DHT22;1015;49.756;6.994;2022-09-09T12:38:43;17.60;99.90
2022;DHT22;1015;49.756;6.994;2022-09-09T12:41:20;18.20;99.90
2022;DHT22;1015;49.756;6.994;2022-09-09T12:43:47;18.70;99.90
2022;DHT22;1015;49.756;6.994;2022-09-09T12:46:21;18.90;99.90
2022;DHT22;1015;49.756;6.994;2022-09-09T12:48:53;18.60;99.90
2022;DHT22;1015;49.756;6.994;2022-09-09T12:51:26;18.80;99.90
2022;DHT22;1015;49.756;6.994;2022-09-09T12:53:54;18.50;99.90
2022;DHT22;1015;49.756;6.994;2022-09-09T12:56:23;19.00;99.90
2022;DHT22;1015;49.756;6.994;2022-09-09T12:58:53;19.20;99.90
2022;DHT22;1015;49.756;6.994;2022-09-09T13:01:23;18.60;99.90
2022;DHT22;1015;49.756;6.994;2022-09-09T13:03:50;18.70;99.90
2022;DHT22;1015;49.756;6.994;2022-09-09T13:06:22;18.70;99.90
2022;DHT22;1015;49.756;6.994;2022-09-09T13:08:50;19.00;99.90
2022;DHT22;1015;49.756;6.994;2022-09-09T13:11:19;18.80;99.90
2022;DHT22;1015;49.756;6.994;2022-09-09T13:13:52;19.30;99.90
2022;DHT22;1015;49.756;6.994;2022-09-09T13:16:21;20.10;99.90
2022;DHT22;1015;49.756;6.994;2022-09-09T13:18:49;19.40;99.90
2022;DHT22;1015;49.756;6.994;2022-09-09T13:21:17;19.00;99.90
2022;DHT22;1015;49.756;6.994;2022-09-09T13:23:50;19.40;99.90
2022;DHT22;1015;49.756;6.994;2022-09-09T13:26:23;19.80;99.90
2022;DHT22;1015;49.756;6.994;2022-09-09T13:28:52;19.80;99.90
2022;DHT22;1015;49.756;6.994;2022-09-09T13:31:22;20.30;99.90
2022;DHT22;1015;49.756;6.994;2022-09-09T13:33:49;20.60;99.90
2022;DHT22;1015;49.756;6.994;2022-09-09T13:36:28;21.00;99.90
2022;DHT22;1015;49.756;6.994;2022-09-09T13:38:58;20.90;99.90
2022;DHT22;1015;49.756;6.994;2022-09-09T13:41:29;20.80;99.90
2022;DHT22;1015;49.756;6.994;2022-09-09T13:43:57;20.20;99.90
2022;DHT22;1015;49.756;6.994;2022-09-09T13:46:31;20.20;99.90
2022;DHT22;1015;49.756;6.994;2022-09-09T13:49:00;20.50;99.90
2022;DHT22;1015;49.756;6.994;2022-09-09T13:51:38;20.50;99.90
2022;DHT22;1015;49.756;6.994;2022-09-09T13:54:09;20.50;99.90
2022;DHT22;1015;49.756;6.994;2022-09-09T13:56:38;20.20;99.90
2022;DHT22;1015;49.756;6.994;2022-09-09T13:59:08;19.90;99.90
2022;DHT22;1015;49.756;6.994;2022-09-09T14:01:36;19.50;99.90
2022;DHT22;1015;49.756;6.994;2022-09-09T14:04:03;19.20;99.90
2022;DHT22;1015;49.756;6.994;2022-09-09T14:06:30;18.20;99.90
2022;DHT22;1015;49.756;6.994;2022-09-09T14:08:57;17.90;99.90
2022;DHT22;1015;49.756;6.994;2022-09-09T14:11:26;18.60;99.90
2022;DHT22;1015;49.756;6.994;2022-09-09T14:13:53;19.00;99.90
2022;DHT22;1015;49.756;6.994;2022-09-09T14:16:20;18.70;99.90
2022;DHT22;1015;49.756;6.994;2022-09-09T14:18:47;18.60;99.90
2022;DHT22;1015;49.756;6.994;2022-09-09T14:21:14;18.20;99.90
2022;DHT22;1015;49.756;6.994;2022-09-09T14:23:41;18.10;99.90
2022;DHT22;1015;49.756;6.994;2022-09-09T14:26:08;18.00;99.90
2022;DHT22;1015;49.756;6.994;2022-09-09T14:28:36;17.80;99.90
2022;DHT22;1015;49.756;6.994;2022-09-09T14:31:05;17.60;99.90
2022;DHT22;1015;49.756;6.994;2022-09-09T14:33:32;17.20;99.90
2022;DHT22;1015;49.756;6.994;2022-09-09T14:36:02;16.60;99.90
2022;DHT22;1015;49.756;6.994;2022-09-09T14:38:29;16.20;99.90
2022;DHT22;1015;49.756;6.994;2022-09-09T14:40:56;15.60;99.90
2022;DHT22;1015;49.756;6.994;2022-09-09T14:43:24;14.90;99.90
2022;DHT22;1015;49.756;6.994;2022-09-09T14:45:53;14.70;99.90
2022;DHT22;1015;49.756;6.994;2022-09-09T14:48:19;14.40;99.90
2022;DHT22;1015;49.756;6.994;2022-09-09T14:50:46;14.40;99.90
2022;DHT22;1015;49.756;6.994;2022-09-09T14:53:16;14.40;99.90
2022;DHT22;1015;49.756;6.994;2022-09-09T14:55:43;14.20;99.90
2022;DHT22;1015;49.756;6.994;2022-09-09T14:58:12;14.20;99.90
2022;DHT22;1015;49.756;6.994;2022-09-09T15:00:39;14.30;99.90
2022;DHT22;1015;49.756;6.994;2022-09-09T15:03:08;14.30;99.90
2022;DHT22;1015;49.756;6.994;2022-09-09T15:05:36;14.20;99.90
2022;DHT22;1015;49.756;6.994;2022-09-09T15:08:03;14.20;99.90
2022;DHT22;1015;49.756;6.994;2022-09-09T15:10:30;14.10;99.90
2022;DHT22;1015;49.756;6.994;2022-09-09T15:12:58;14.00;99.90
2022;DHT22;1015;49.756;6.994;2022-09-09T15:15:25;14.10;99.90
2022;DHT22;1015;49.756;6.994;2022-09-09T15:17:52;13.90;99.90
2022;DHT22;1015;49.756;6.994;2022-09-09T15:20:21;13.90;99.90
2022;DHT22;1015;49.756;6.994;2022-09-09T15:22:48;13.90;99.90
2022;DHT22;1015;49.756;6.994;2022-09-09T15:25:16;14.00;99.90
2022;DHT22;1015;49.756;6.994;2022-09-09T15:27:43;14.00;99.90
2022;DHT22;1015;49.756;6.994;2022-09-09T15:30:11;14.10;99.90
2022;DHT22;1015;49.756;6.994;2022-09-09T15:32:38;14.10;99.90
2022;DHT22;1015;49.756;6.994;2022-09-09T15:35:06;14.20;99.90
2022;DHT22;1015;49.756;6.994;2022-09-09T15:37:35;14.40;99.90
2022;DHT22;1015;49.756;6.994;2022-09-09T15:40:02;14.60;99.90
2022;DHT22;1015;49.756;6.994;2022-09-09T15:42:29;14.80;99.90
2022;DHT22;1015;49.756;6.994;2022-09-09T15:44:56;14.90;99.90
2022;DHT22;1015;49.756;6.994;2022-09-09T15:47:24;15.10;99.90
2022;DHT22;1015;49.756;6.994;2022-09-09T15:49:52;15.40;99.90
2022;DHT22;1015;49.756;6.994;2022-09-09T15:52:19;15.60;99.90
2022;DHT22;1015;49.756;6.994;2022-09-09T15:54:47;15.80;99.90
2022;DHT22;1015;49.756;6.994;2022-09-09T15:57:14;15.90;99.90
2022;DHT22;1015;49.756;6.994;2022-09-09T15:59:41;15.80;99.90
2022;DHT22;1015;49.756;6.994;2022-09-09T16:02:10;15.90;99.90
2022;DHT22;1015;49.756;6.994;2022-09-09T16:04:38;15.80;99.90
2022;DHT22;1015;49.756;6.994;2022-09-09T16:07:05;15.60;99.90
2022;DHT22;1015;49.756;6.994;2022-09-09T16:09:33;15.30;99.90
2022;DHT22;1015;49.756;6.994;2022-09-09T16:12:03;15.30;99.90
2022;DHT22;1015;49.756;6.994;2022-09-09T16:14:33;15.20;99.90
2022;DHT22;1015;49.756;6.994;2022-09-09T16:17:02;15.10;99.90
2022;DHT22;1015;49.756;6.994;2022-09-09T16:19:29;15.10;99.90
2022;DHT22;1015;49.756;6.994;2022-09-09T16:21:57;14.80;99.90
2022;DHT22;1015;49.756;6.994;2022-09-09T16:24:24;14.60;99.90
2022;DHT22;1015;49.756;6.994;2022-09-09T16:26:53;14.40;99.90
2022;DHT22;1015;49.756;6.994;2022-09-09T16:29:22;14.20;99.90
2022;DHT22;1015;49.756;6.994;2022-09-09T16:31:51;13.90;99.90
2022;DHT22;1015;49.756;6.994;2022-09-09T16:34:19;13.80;99.90
2022;DHT22;1015;49.756;6.994;2022-09-09T16:36:48;13.50;99.90
2022;DHT22;1015;49.756;6.994;2022-09-09T16:39:16;13.30;99.90